TimeMDT,TemperatureF,Dew PointF,Humidity,Sea Level PressureIn,VisibilityMPH,Wind Direction,Wind SpeedMPH,Gust SpeedMPH,PrecipitationIn,Events,Conditions,WindDirDegrees,DateUTC
12:10 AM,50.0,46.4,87,30.21,10.0,Calm,Calm,-,N/A,,Clear,0,2013-07-25 06:10:00
12:30 AM,48.2,44.6,87,30.21,10.0,WNW,3.5,-,N/A,,Clear,290,2013-07-25 06:30:00
12:50 AM,50.0,44.6,82,30.23,10.0,North,6.9,-,N/A,,Clear,360,2013-07-25 06:50:00
1:10 AM,46.4,42.8,87,30.23,10.0,WSW,4.6,-,N/A,,Clear,240,2013-07-25 07:10:00
1:30 AM,46.4,41.0,81,30.23,10.0,Calm,Calm,-,N/A,,Clear,0,2013-07-25 07:30:00
1:50 AM,44.6,41.0,87,30.24,10.0,SSE,3.5,-,N/A,,Clear,160,2013-07-25 07:50:00
2:10 AM,44.6,39.2,81,30.24,10.0,Calm,Calm,-,N/A,,Clear,0,2013-07-25 08:10:00
2:30 AM,42.8,39.2,87,30.24,10.0,Calm,Calm,-,N/A,,Clear,0,2013-07-25 08:30:00
2:50 AM,42.8,39.2,87,30.25,10.0,Calm,Calm,-,N/A,,Clear,0,2013-07-25 08:50:00
3:10 AM,41.0,37.4,87,30.25,10.0,Calm,Calm,-,N/A,,Clear,0,2013-07-25 09:10:00
3:30 AM,41.0,35.6,81,30.26,10.0,Calm,Calm,-,N/A,,Clear,0,2013-07-25 09:30:00
3:50 AM,39.2,35.6,87,30.26,10.0,SSW,3.5,-,N/A,,Clear,210,2013-07-25 09:50:00
4:10 AM,41.0,37.4,87,30.26,10.0,West,3.5,-,N/A,,Clear,260,2013-07-25 10:10:00
4:30 AM,42.8,39.2,87,30.27,10.0,Calm,Calm,-,N/A,,Clear,0,2013-07-25 10:30:00
4:50 AM,39.2,35.6,87,30.27,10.0,Calm,Calm,-,N/A,,Clear,0,2013-07-25 10:50:00
5:10 AM,39.2,39.2,100,30.28,10.0,Calm,Calm,-,N/A,,Clear,0,2013-07-25 11:10:00
5:30 AM,37.4,37.4,100,30.28,10.0,Calm,Calm,-,N/A,,Clear,0,2013-07-25 11:30:00
5:50 AM,37.4,37.4,100,30.29,10.0,South,3.5,-,N/A,,Clear,180,2013-07-25 11:50:00
6:10 AM,37.4,37.4,100,30.30,10.0,Calm,Calm,-,N/A,,Clear,0,2013-07-25 12:10:00
6:30 AM,37.4,37.4,100,30.30,10.0,SSW,3.5,-,N/A,,Clear,210,2013-07-25 12:30:00
6:50 AM,41.0,41.0,100,30.30,10.0,Calm,Calm,-,N/A,,Clear,0,2013-07-25 12:50:00
7:10 AM,44.6,42.8,93,30.31,10.0,South,3.5,-,N/A,,Clear,190,2013-07-25 13:10:00
7:30 AM,48.2,48.2,100,30.31,10.0,Calm,Calm,-,N/A,,Clear,0,2013-07-25 13:30:00
7:50 AM,50.0,50.0,100,30.32,10.0,Calm,Calm,-,N/A,,Clear,0,2013-07-25 13:50:00
8:10 AM,53.6,53.6,100,30.32,10.0,Calm,Calm,-,N/A,,Clear,0,2013-07-25 14:10:00
8:30 AM,55.4,53.6,94,30.32,10.0,Calm,Calm,-,N/A,,Clear,0,2013-07-25 14:30:00
8:50 AM,57.2,53.6,88,30.32,10.0,Calm,Calm,-,N/A,,Clear,0,2013-07-25 14:50:00
9:10 AM,59.0,55.4,88,30.32,10.0,Calm,Calm,-,N/A,,Clear,0,2013-07-25 15:10:00
9:30 AM,62.6,57.2,82,30.32,10.0,Calm,Calm,-,N/A,,Clear,0,2013-07-25 15:30:00
9:50 AM,66.2,60.8,83,30.31,10.0,Calm,Calm,-,N/A,,Clear,0,2013-07-25 15:50:00
10:10 AM,68.0,62.6,83,30.31,10.0,NNE,3.5,-,N/A,,Clear,20,2013-07-25 16:10:00
10:30 AM,68.0,64.4,88,30.31,10.0,NNE,4.6,-,N/A,,Clear,20,2013-07-25 16:30:00
10:50 AM,71.6,66.2,83,30.31,10.0,Calm,Calm,-,N/A,,Clear,0,2013-07-25 16:50:00
11:10 AM,71.6,66.2,83,30.31,10.0,WSW,3.5,-,N/A,,Clear,240,2013-07-25 17:10:00
11:30 AM,75.2,69.8,83,30.30,10.0,East,5.8,-,N/A,,Clear,90,2013-07-25 17:30:00
11:50 AM,75.2,71.6,89,30.30,10.0,NE,3.5,-,N/A,,Clear,40,2013-07-25 17:50:00
12:10 PM,75.2,71.6,89,30.30,10.0,North,6.9,-,N/A,,Clear,360,2013-07-25 18:10:00
12:30 PM,75.2,71.6,89,30.29,10.0,ESE,3.5,-,N/A,,Clear,120,2013-07-25 18:30:00
12:50 PM,77.0,73.4,89,30.29,10.0,West,8.1,-,N/A,,Clear,260,2013-07-25 18:50:00
1:10 PM,77.0,73.4,89,30.29,10.0,SE,6.9,-,N/A,,Clear,140,2013-07-25 19:10:00
1:30 PM,80.6,75.2,84,30.28,10.0,SSW,8.1,18.4,N/A,,Clear,210,2013-07-25 19:30:00
1:50 PM,80.6,75.2,84,30.28,10.0,NNW,5.8,-,N/A,,Clear,340,2013-07-25 19:50:00
2:10 PM,78.8,73.4,83,30.28,10.0,NE,6.9,-,N/A,,Clear,50,2013-07-25 20:10:00
2:30 PM,78.8,73.4,83,30.28,10.0,West,4.6,-,N/A,,Clear,270,2013-07-25 20:30:00
2:50 PM,80.6,75.2,84,30.28,10.0,West,12.7,-,N/A,,Clear,260,2013-07-25 20:50:00
3:10 PM,78.8,73.4,83,30.28,10.0,West,4.6,-,N/A,,Clear,270,2013-07-25 21:10:00
3:30 PM,80.6,75.2,84,30.27,10.0,West,8.1,19.6,N/A,,Clear,280,2013-07-25 21:30:00
3:50 PM,82.4,77.0,84,30.26,10.0,West,10.4,19.6,N/A,,Clear,280,2013-07-25 21:50:00
4:10 PM,80.6,75.2,84,30.26,10.0,SW,13.8,19.6,N/A,,Clear,230,2013-07-25 22:10:00
4:30 PM,78.8,73.4,83,30.26,10.0,WSW,11.5,19.6,N/A,,Clear,240,2013-07-25 22:30:00
4:50 PM,78.8,73.4,83,30.26,10.0,SW,12.7,17.3,N/A,,Clear,220,2013-07-25 22:50:00
5:10 PM,80.6,75.2,84,30.26,10.0,West,10.4,21.9,N/A,,Clear,260,2013-07-25 23:10:00
5:30 PM,80.6,75.2,84,30.26,10.0,SW,10.4,23.0,N/A,,Clear,230,2013-07-25 23:30:00
5:50 PM,80.6,75.2,84,30.26,10.0,SW,12.7,-,N/A,,Clear,230,2013-07-25 23:50:00
6:10 PM,80.6,75.2,84,30.26,10.0,WSW,15.0,20.7,N/A,,Clear,240,2013-07-26 00:10:00
6:30 PM,77.0,73.4,89,30.26,10.0,West,4.6,17.3,N/A,,Clear,280,2013-07-26 00:30:00
6:50 PM,77.0,71.6,83,30.27,10.0,West,5.8,-,N/A,,Partly Cloudy,280,2013-07-26 00:50:00
7:10 PM,77.0,71.6,83,30.27,10.0,WSW,8.1,-,N/A,,Mostly Cloudy,240,2013-07-26 01:10:00
7:30 PM,75.2,71.6,89,30.27,10.0,SW,8.1,-,N/A,,Scattered Clouds,220,2013-07-26 01:30:00
7:50 PM,75.2,69.8,83,30.27,10.0,SW,8.1,-,N/A,,Partly Cloudy,220,2013-07-26 01:50:00
8:10 PM,73.4,68.0,83,30.28,10.0,SSW,3.5,-,N/A,,Clear,210,2013-07-26 02:10:00
8:30 PM,69.8,66.2,88,30.28,10.0,SSW,4.6,-,N/A,,Clear,200,2013-07-26 02:30:00
8:50 PM,66.2,62.6,88,30.28,10.0,Calm,Calm,-,N/A,,Clear,0,2013-07-26 02:50:00
9:10 PM,62.6,57.2,82,30.29,10.0,Calm,Calm,-,N/A,,Clear,0,2013-07-26 03:10:00
9:30 PM,62.6,57.2,82,30.30,10.0,NE,5.8,-,N/A,,Partly Cloudy,40,2013-07-26 03:30:00
9:50 PM,62.6,57.2,82,30.30,10.0,SSW,3.5,-,N/A,,Clear,210,2013-07-26 03:50:00
10:10 PM,62.6,57.2,82,30.30,10.0,SW,5.8,-,N/A,,Clear,220,2013-07-26 04:10:00
10:30 PM,59.0,55.4,88,30.31,10.0,Calm,Calm,-,N/A,,Clear,0,2013-07-26 04:30:00
10:50 PM,57.2,53.6,88,30.31,10.0,Calm,Calm,-,N/A,,Clear,0,2013-07-26 04:50:00
11:10 PM,55.4,50.0,82,30.32,10.0,Calm,Calm,-,N/A,,Clear,0,2013-07-26 05:10:00
11:30 PM,55.4,50.0,82,30.32,10.0,Calm,Calm,-,N/A,,Clear,0,2013-07-26 05:30:00
11:50 PM,57.2,51.8,82,30.32,10.0,ENE,3.5,-,N/A,,Clear,60,2013-07-26 05:50:00